Observations for CROTONE, Italy (LIBC)

LIBC 180650Z 02008KT CAVOK 26/19 Q1014  
LIBC 180600Z 36007KT CAVOK 25/20 Q1014
LIBC 171750Z 20008KT CAVOK 25/19 Q1012  
LIBC 171650Z 19007KT CAVOK 26/19 Q1012  
LIBC 171550Z 18007KT CAVOK 27/19 Q1012  
LIBC 171450Z 19009KT CAVOK 29/17 Q1012  
LIBC 171350Z 14007KT CAVOK 29/17 Q1013  
LIBC 171250Z 14008KT CAVOK 29/17 Q1013  
LIBC 171150Z 13007KT CAVOK 30/15 Q1013  
LIBC 171050Z 08006KT CAVOK 30/16 Q1014  
LIBC 170950Z 03004KT CAVOK 29/18 Q1014  
LIBC 170850Z 04007KT CAVOK 28/17 Q1014  
LIBC 170750Z 03008KT CAVOK 27/17 Q1014  
LIBC 170650Z 03007KT CAVOK 28/16 Q1014